Blaine, Indiana
Current Conditions -  °F | °C
As of 11:53 PM on Friday 28 Nov 2014 (Local Time) from KMIE Reporting Station
Clear Clear  
Wind Chill: 23°   Ceiling: Unl
Heat Index: 33°   Visibility: 10mi
Dew Point: 19°   Wind: 14mph
Humidity: 56%   Direction: 180°S
Pressure: 30.02"   Gusts: NA
Location:  40.4312°N, 85.0058°W
Report Text: KMIE 290453Z AUTO 18012KT 10SM CLR 01/M07 A3002 RMK AO2 SLP170 T00061072 400061061
Loading
Personal Weather Stations






























Interactive Weather Map New forecast layout! Learn more

10-Day Weather Forecast

Advertisements
Track Severe Weather on mobile